createdAt,value
2019-03-30T00:02:51.800Z,97260.00
2019-03-30T00:07:54.722Z,97264.00
2019-03-30T00:12:57.668Z,97244.00
2019-03-30T00:18:00.578Z,97248.00
2019-03-30T00:23:03.749Z,97237.00
2019-03-30T00:28:06.733Z,97247.00
2019-03-30T00:33:09.729Z,97248.00
2019-03-30T00:38:12.703Z,97223.00
2019-03-30T00:43:16.502Z,97237.00
2019-03-30T00:48:20.366Z,97235.00
2019-03-30T00:53:25.918Z,97236.00
2019-03-30T00:58:28.890Z,97231.00
2019-03-30T01:03:36.971Z,97200.00
2019-03-30T01:08:40.068Z,97236.00
2019-03-30T01:13:43.015Z,97233.00
2019-03-30T01:18:45.965Z,97224.00
2019-03-30T01:23:50.278Z,97222.00
2019-03-30T01:28:53.275Z,97220.00
2019-03-30T01:33:56.589Z,97213.00
2019-03-30T01:38:59.577Z,97215.00
2019-03-30T01:44:02.620Z,97210.00
2019-03-30T02:27:58.335Z,97208.00
2019-03-30T02:33:01.346Z,97203.00
2019-03-30T02:38:05.144Z,97203.00
2019-03-30T02:43:08.226Z,97196.00
2019-03-30T02:48:11.247Z,97198.00
2019-03-30T05:21:52.245Z,97202.00
2019-03-30T05:26:56.358Z,97213.00
2019-03-30T05:42:46.746Z,97205.00
2019-03-30T05:47:50.086Z,97207.00
2019-03-30T06:20:12.851Z,97210.00
2019-03-30T06:25:16.570Z,97202.00
2019-03-30T06:30:22.450Z,97205.00
2019-03-30T06:35:27.842Z,97205.00
2019-03-30T06:40:33.610Z,97198.00
2019-03-30T06:45:37.513Z,97197.00
2019-03-30T06:50:41.028Z,97185.00
2019-03-30T08:07:51.759Z,97197.00
2019-03-30T08:12:55.820Z,97196.00
2019-03-30T08:17:58.858Z,97190.00
2019-03-30T08:23:01.906Z,97193.00
2019-03-30T08:28:04.912Z,97194.00
2019-03-30T08:33:08.277Z,97189.00
2019-03-30T08:38:11.414Z,97187.00
2019-03-30T08:43:14.762Z,97180.00
2019-03-30T08:48:17.759Z,97182.00
2019-03-30T08:53:20.707Z,97183.00
2019-03-30T08:58:24.148Z,97183.00
2019-03-30T09:03:27.816Z,97183.00
2019-03-30T09:08:31.884Z,97175.00
2019-03-30T09:13:36.052Z,97175.00
2019-03-30T09:18:39.016Z,97177.00
2019-03-30T09:23:42.038Z,97169.00
2019-03-30T09:28:45.000Z,97170.00
2019-03-30T09:33:48.569Z,97172.00
2019-03-30T09:38:51.735Z,97162.00
2019-03-30T09:43:55.367Z,97159.00
2019-03-30T09:48:58.427Z,97159.00
2019-03-30T09:54:01.435Z,97158.00
2019-03-30T09:59:04.523Z,97156.00
2019-03-30T10:09:42.354Z,97130.00
2019-03-30T10:14:45.612Z,97131.00
2019-03-30T10:20:03.571Z,97127.00
2019-03-30T10:24:53.906Z,97117.00
2019-03-30T10:29:57.365Z,97109.00
2019-03-30T10:35:00.779Z,97105.00
2019-03-30T10:40:04.705Z,97091.00
2019-03-30T10:45:07.828Z,97097.00
2019-03-30T10:50:11.643Z,97086.00
2019-03-30T10:55:14.973Z,97092.00
2019-03-30T11:00:35.943Z,97077.00
2019-03-30T11:05:39.189Z,97070.00
2019-03-30T11:10:42.275Z,97065.00
2019-03-30T11:15:45.187Z,97068.00
2019-03-30T11:20:48.547Z,97061.00
2019-03-30T11:25:52.807Z,97050.00
2019-03-30T11:30:55.765Z,97047.00
2019-03-30T11:36:00.211Z,97040.00
2019-03-30T11:41:03.159Z,97029.00
2019-03-30T11:46:06.175Z,97058.00
2019-03-30T11:51:09.155Z,97029.00
2019-03-30T11:56:12.159Z,97025.00
2019-03-30T12:01:15.123Z,97013.00
2019-03-30T12:06:18.262Z,97012.00
2019-03-30T12:11:21.843Z,97001.00
2019-03-30T12:16:24.759Z,96996.00
2019-03-30T12:21:27.711Z,96978.00
2019-03-30T12:26:30.637Z,96981.00
2019-03-30T12:31:33.656Z,96970.00
2019-03-30T12:36:37.395Z,96968.00
2019-03-30T12:41:40.317Z,96961.00
2019-03-30T12:46:43.469Z,96958.00
2019-03-30T12:51:46.450Z,96951.00
2019-03-30T12:56:51.104Z,96937.00
2019-03-30T13:01:53.999Z,96937.00
2019-03-30T13:06:57.116Z,96930.00
2019-03-30T13:12:00.003Z,96916.00
2019-03-30T13:17:03.497Z,96919.00
2019-03-30T13:22:06.400Z,96911.00
2019-03-30T13:27:12.735Z,96912.00
2019-03-30T13:32:14.080Z,96903.00
2019-03-30T13:37:18.180Z,96897.00
2019-03-30T13:42:21.123Z,96803.00
2019-03-30T13:47:24.086Z,96891.00
2019-03-30T13:52:27.639Z,96895.00
2019-03-30T13:57:30.609Z,96876.00
2019-03-30T14:02:33.748Z,96889.00
2019-03-30T14:07:37.052Z,96877.00
2019-03-30T14:12:40.001Z,96881.00
2019-03-30T14:17:44.188Z,96881.00
2019-03-30T14:22:47.440Z,96867.00
2019-03-30T14:27:50.407Z,96859.00
2019-03-30T14:32:53.835Z,96855.00
2019-03-30T14:37:58.220Z,96853.00
2019-03-30T14:43:02.678Z,96824.00
2019-03-30T14:48:05.700Z,96843.00
2019-03-30T14:53:08.721Z,96843.00
2019-03-30T14:58:11.656Z,96839.00
2019-03-30T15:03:14.939Z,96832.00
2019-03-30T15:08:19.176Z,96825.00
2019-03-30T15:13:22.239Z,96824.00
2019-03-30T15:18:25.146Z,96820.00
2019-03-30T15:23:28.094Z,96820.00
2019-03-30T15:28:31.424Z,96825.00
2019-03-30T15:33:34.377Z,96820.00
2019-03-30T15:38:37.668Z,96819.00
2019-03-30T15:43:40.576Z,96806.00
2019-03-30T15:48:43.625Z,96803.00
2019-03-30T15:53:46.940Z,96803.00
2019-03-30T15:58:50.064Z,96801.00
2019-03-30T16:03:53.115Z,96795.00
2019-03-30T16:08:56.288Z,96790.00
2019-03-30T16:13:59.573Z,96783.00
2019-03-30T16:19:02.519Z,96794.00
2019-03-30T16:24:05.751Z,96789.00
2019-03-30T16:29:09.776Z,96788.00
2019-03-30T16:34:12.786Z,96789.00
2019-03-30T16:39:15.894Z,96788.00
2019-03-30T16:44:18.818Z,96779.00
2019-03-30T16:49:21.811Z,96781.00
2019-03-30T16:54:24.695Z,96779.00
2019-03-30T16:59:27.980Z,96771.00
2019-03-30T17:04:30.887Z,96776.00
2019-03-30T17:09:34.719Z,96766.00
2019-03-30T17:14:38.131Z,96761.00
2019-03-30T17:19:42.307Z,96753.00
2019-03-30T17:24:45.192Z,96758.00
2019-03-30T17:29:48.803Z,96757.00
2019-03-30T17:34:51.967Z,96752.00
2019-03-30T17:39:55.078Z,96750.00
2019-03-30T17:44:58.291Z,96753.00
2019-03-30T17:50:01.211Z,96750.00
2019-03-30T17:55:04.164Z,96756.00
2019-03-30T18:00:09.259Z,96760.00
2019-03-30T18:05:12.491Z,96760.00
2019-03-30T18:10:15.488Z,96759.00
2019-03-30T18:15:19.444Z,96767.00
2019-03-30T18:20:22.741Z,96767.00
2019-03-30T18:25:25.767Z,96768.00
2019-03-30T18:30:36.724Z,96775.00
2019-03-30T18:35:39.915Z,96773.00
2019-03-30T18:40:43.111Z,96781.00
2019-03-30T18:45:46.268Z,96781.00
2019-03-30T18:50:49.243Z,96786.00
2019-03-30T18:55:52.192Z,96672.00
2019-03-30T19:00:55.213Z,96790.00
2019-03-30T19:05:58.292Z,96782.00
2019-03-30T19:11:01.423Z,96787.00
2019-03-30T19:16:04.591Z,96790.00
2019-03-30T19:21:07.568Z,96785.00
2019-03-30T19:26:10.573Z,96781.00
2019-03-30T19:31:13.548Z,96777.00
2019-03-30T19:36:16.562Z,96767.00
2019-03-30T19:41:19.623Z,96779.00
2019-03-30T19:46:22.731Z,96774.00
2019-03-30T19:51:25.720Z,96768.00
2019-03-30T19:56:28.652Z,96781.00
2019-03-30T20:01:31.599Z,96785.00
2019-03-30T20:06:34.675Z,96781.00
2019-03-30T20:11:37.678Z,96782.00
2019-03-30T20:16:42.326Z,96777.00
2019-03-30T20:21:45.879Z,96780.00
2019-03-30T20:26:48.704Z,96778.00
2019-03-30T20:31:51.760Z,96772.00
2019-03-30T20:36:54.768Z,96769.00
2019-03-30T20:41:57.688Z,96774.00
2019-03-30T20:47:01.035Z,96763.00
2019-03-30T20:52:03.911Z,96763.00
2019-03-30T20:57:06.893Z,96775.00
2019-03-30T21:02:09.876Z,96768.00
2019-03-30T21:07:12.850Z,96761.00
2019-03-30T21:12:15.859Z,96763.00
2019-03-30T21:17:19.167Z,96760.00
2019-03-30T21:22:22.650Z,96759.00
2019-03-30T21:27:25.847Z,96766.00
2019-03-30T21:32:28.819Z,96757.00
2019-03-30T21:37:31.917Z,96752.00
2019-03-30T21:42:35.188Z,96762.00
2019-03-30T21:47:39.555Z,96764.00
2019-03-30T21:52:44.715Z,96757.00
2019-03-30T21:57:47.947Z,96755.00
2019-03-30T22:02:50.856Z,96751.00
2019-03-30T22:07:53.778Z,96754.00
2019-03-30T22:12:56.788Z,96757.00
2019-03-30T22:17:59.633Z,96756.00
2019-03-30T22:23:04.191Z,96756.00
2019-03-30T22:28:07.148Z,96755.00
2019-03-30T22:33:10.050Z,96755.00
2019-03-30T22:38:13.081Z,96758.00
2019-03-30T22:43:16.409Z,96750.00
2019-03-30T22:48:19.244Z,96747.00
2019-03-30T22:53:24.039Z,96743.00
2019-03-30T22:58:26.955Z,96750.00
2019-03-30T23:03:29.956Z,96752.00
2019-03-30T23:08:32.904Z,96746.00
2019-03-30T23:13:35.855Z,96746.00
2019-03-30T23:18:38.818Z,96740.00
2019-03-30T23:23:52.364Z,96745.00
2019-03-30T23:28:59.422Z,96744.00
2019-03-30T23:34:02.121Z,96731.00
2019-03-30T23:39:07.775Z,96739.00
2019-03-30T23:44:10.688Z,96741.00
2019-03-30T23:49:13.636Z,96730.00
2019-03-30T23:54:18.535Z,96727.00
2019-03-30T23:59:21.505Z,96724.00
